sensor_id;sensor_type;location;lat;lon;timestamp;P1;durP1;ratioP1;P2;durP2;ratioP2
5979;SDS011;3016;50.308;8.258;2023-07-20T00:02:31;18.93;;;3.03;;
5979;SDS011;3016;50.308;8.258;2023-07-20T00:05:32;17.37;;;2.27;;
5979;SDS011;3016;50.308;8.258;2023-07-20T00:08:33;19.10;;;2.70;;
5979;SDS011;3016;50.308;8.258;2023-07-20T00:11:35;18.30;;;2.63;;
5979;SDS011;3016;50.308;8.258;2023-07-20T00:14:40;18.70;;;2.83;;
5979;SDS011;3016;50.308;8.258;2023-07-20T00:17:40;18.33;;;2.57;;
5979;SDS011;3016;50.308;8.258;2023-07-20T00:20:41;17.93;;;2.80;;
5979;SDS011;3016;50.308;8.258;2023-07-20T00:23:42;17.77;;;2.67;;
5979;SDS011;3016;50.308;8.258;2023-07-20T00:26:43;19.70;;;2.73;;
5979;SDS011;3016;50.308;8.258;2023-07-20T00:29:44;22.00;;;2.87;;
5979;SDS011;3016;50.308;8.258;2023-07-20T00:32:45;18.00;;;2.40;;
5979;SDS011;3016;50.308;8.258;2023-07-20T00:35:45;17.97;;;2.60;;
5979;SDS011;3016;50.308;8.258;2023-07-20T00:38:46;19.10;;;3.30;;
5979;SDS011;3016;50.308;8.258;2023-07-20T00:41:47;18.70;;;2.50;;
5979;SDS011;3016;50.308;8.258;2023-07-20T00:44:47;19.70;;;2.90;;
5979;SDS011;3016;50.308;8.258;2023-07-20T00:47:48;18.63;;;3.10;;
5979;SDS011;3016;50.308;8.258;2023-07-20T00:50:49;19.50;;;2.70;;
5979;SDS011;3016;50.308;8.258;2023-07-20T00:53:50;18.83;;;3.20;;
5979;SDS011;3016;50.308;8.258;2023-07-20T00:56:51;19.50;;;2.73;;
5979;SDS011;3016;50.308;8.258;2023-07-20T00:59:53;18.97;;;3.20;;
5979;SDS011;3016;50.308;8.258;2023-07-20T01:02:54;18.80;;;2.90;;
5979;SDS011;3016;50.308;8.258;2023-07-20T01:12:46;18.60;;;3.00;;
5979;SDS011;3016;50.308;8.258;2023-07-20T01:16:00;25.70;;;3.83;;
5979;SDS011;3016;50.308;8.258;2023-07-20T01:19:01;18.70;;;2.70;;
5979;SDS011;3016;50.308;8.258;2023-07-20T01:29:17;21.00;;;2.87;;
5979;SDS011;3016;50.308;8.258;2023-07-20T01:32:42;19.20;;;2.80;;
5979;SDS011;3016;50.308;8.258;2023-07-20T01:35:50;19.10;;;2.97;;
5979;SDS011;3016;50.308;8.258;2023-07-20T01:38:57;19.20;;;2.93;;
5979;SDS011;3016;50.308;8.258;2023-07-20T01:41:59;18.63;;;2.90;;
5979;SDS011;3016;50.308;8.258;2023-07-20T01:45:00;19.27;;;3.00;;
5979;SDS011;3016;50.308;8.258;2023-07-20T01:48:01;20.00;;;3.50;;
5979;SDS011;3016;50.308;8.258;2023-07-20T01:51:02;18.50;;;2.40;;
5979;SDS011;3016;50.308;8.258;2023-07-20T01:54:02;18.70;;;3.20;;
5979;SDS011;3016;50.308;8.258;2023-07-20T01:57:03;18.53;;;3.27;;
5979;SDS011;3016;50.308;8.258;2023-07-20T02:00:04;20.93;;;2.90;;
5979;SDS011;3016;50.308;8.258;2023-07-20T02:03:06;18.83;;;3.03;;
5979;SDS011;3016;50.308;8.258;2023-07-20T02:06:07;21.60;;;2.63;;
5979;SDS011;3016;50.308;8.258;2023-07-20T02:09:08;25.53;;;2.90;;
5979;SDS011;3016;50.308;8.258;2023-07-20T02:12:09;25.00;;;3.53;;
5979;SDS011;3016;50.308;8.258;2023-07-20T02:15:09;19.73;;;3.23;;
5979;SDS011;3016;50.308;8.258;2023-07-20T02:18:10;22.03;;;3.20;;
5979;SDS011;3016;50.308;8.258;2023-07-20T02:21:11;18.37;;;3.27;;
5979;SDS011;3016;50.308;8.258;2023-07-20T02:24:12;19.80;;;3.80;;
5979;SDS011;3016;50.308;8.258;2023-07-20T02:27:13;20.00;;;3.33;;
5979;SDS011;3016;50.308;8.258;2023-07-20T02:30:14;20.50;;;3.97;;
5979;SDS011;3016;50.308;8.258;2023-07-20T02:33:16;18.77;;;3.17;;
5979;SDS011;3016;50.308;8.258;2023-07-20T02:36:16;19.00;;;3.90;;
5979;SDS011;3016;50.308;8.258;2023-07-20T02:39:17;20.80;;;3.33;;
5979;SDS011;3016;50.308;8.258;2023-07-20T02:42:18;18.40;;;2.70;;
5979;SDS011;3016;50.308;8.258;2023-07-20T02:45:19;18.67;;;3.30;;
5979;SDS011;3016;50.308;8.258;2023-07-20T02:48:20;23.20;;;3.70;;
5979;SDS011;3016;50.308;8.258;2023-07-20T02:51:20;17.43;;;2.90;;
5979;SDS011;3016;50.308;8.258;2023-07-20T02:54:21;18.47;;;2.70;;
5979;SDS011;3016;50.308;8.258;2023-07-20T02:57:22;19.13;;;3.20;;
5979;SDS011;3016;50.308;8.258;2023-07-20T03:00:22;19.67;;;3.57;;
5979;SDS011;3016;50.308;8.258;2023-07-20T03:03:23;18.23;;;2.93;;
5979;SDS011;3016;50.308;8.258;2023-07-20T03:06:24;18.67;;;3.10;;
5979;SDS011;3016;50.308;8.258;2023-07-20T03:09:24;17.37;;;2.70;;
5979;SDS011;3016;50.308;8.258;2023-07-20T03:12:25;18.80;;;2.90;;
5979;SDS011;3016;50.308;8.258;2023-07-20T03:15:27;18.53;;;3.33;;
5979;SDS011;3016;50.308;8.258;2023-07-20T03:18:27;18.13;;;3.30;;
5979;SDS011;3016;50.308;8.258;2023-07-20T03:21:28;19.00;;;3.30;;
5979;SDS011;3016;50.308;8.258;2023-07-20T03:24:29;19.50;;;3.23;;
5979;SDS011;3016;50.308;8.258;2023-07-20T03:27:30;18.10;;;2.63;;
5979;SDS011;3016;50.308;8.258;2023-07-20T03:30:30;18.70;;;2.97;;
5979;SDS011;3016;50.308;8.258;2023-07-20T03:33:31;19.40;;;3.73;;
5979;SDS011;3016;50.308;8.258;2023-07-20T03:36:32;17.70;;;3.00;;
5979;SDS011;3016;50.308;8.258;2023-07-20T03:39:33;17.93;;;2.83;;
5979;SDS011;3016;50.308;8.258;2023-07-20T03:42:33;18.07;;;2.70;;
5979;SDS011;3016;50.308;8.258;2023-07-20T03:45:34;19.77;;;4.40;;
5979;SDS011;3016;50.308;8.258;2023-07-20T03:48:35;19.17;;;3.47;;
5979;SDS011;3016;50.308;8.258;2023-07-20T03:51:36;19.57;;;3.30;;
5979;SDS011;3016;50.308;8.258;2023-07-20T03:54:36;21.33;;;3.67;;
5979;SDS011;3016;50.308;8.258;2023-07-20T03:57:37;19.77;;;4.00;;
5979;SDS011;3016;50.308;8.258;2023-07-20T04:00:37;20.13;;;3.80;;
5979;SDS011;3016;50.308;8.258;2023-07-20T04:03:38;19.47;;;3.20;;
5979;SDS011;3016;50.308;8.258;2023-07-20T04:06:39;19.30;;;3.60;;
5979;SDS011;3016;50.308;8.258;2023-07-20T04:09:40;18.60;;;2.77;;
5979;SDS011;3016;50.308;8.258;2023-07-20T04:12:40;35.57;;;7.83;;
5979;SDS011;3016;50.308;8.258;2023-07-20T04:15:41;18.57;;;2.97;;
5979;SDS011;3016;50.308;8.258;2023-07-20T04:18:42;19.30;;;3.87;;
5979;SDS011;3016;50.308;8.258;2023-07-20T04:21:43;19.60;;;3.27;;
5979;SDS011;3016;50.308;8.258;2023-07-20T04:24:44;19.97;;;3.57;;
5979;SDS011;3016;50.308;8.258;2023-07-20T04:27:45;18.90;;;3.53;;
5979;SDS011;3016;50.308;8.258;2023-07-20T04:30:48;19.60;;;3.50;;
5979;SDS011;3016;50.308;8.258;2023-07-20T04:33:50;20.13;;;3.73;;
5979;SDS011;3016;50.308;8.258;2023-07-20T04:36:51;18.40;;;2.80;;
5979;SDS011;3016;50.308;8.258;2023-07-20T04:39:52;18.80;;;3.37;;
5979;SDS011;3016;50.308;8.258;2023-07-20T04:42:52;19.77;;;3.47;;
5979;SDS011;3016;50.308;8.258;2023-07-20T04:45:53;18.90;;;3.27;;
5979;SDS011;3016;50.308;8.258;2023-07-20T04:48:53;18.90;;;3.40;;
5979;SDS011;3016;50.308;8.258;2023-07-20T04:51:54;20.43;;;4.23;;
5979;SDS011;3016;50.308;8.258;2023-07-20T04:54:55;19.20;;;3.60;;
5979;SDS011;3016;50.308;8.258;2023-07-20T04:57:56;21.90;;;3.10;;
5979;SDS011;3016;50.308;8.258;2023-07-20T05:00:56;19.47;;;3.67;;
5979;SDS011;3016;50.308;8.258;2023-07-20T05:03:57;20.47;;;4.50;;
5979;SDS011;3016;50.308;8.258;2023-07-20T05:06:58;18.93;;;3.20;;
5979;SDS011;3016;50.308;8.258;2023-07-20T05:09:58;20.73;;;4.30;;
5979;SDS011;3016;50.308;8.258;2023-07-20T05:12:59;18.50;;;3.13;;
5979;SDS011;3016;50.308;8.258;2023-07-20T05:16:00;21.40;;;4.00;;
5979;SDS011;3016;50.308;8.258;2023-07-20T05:19:01;21.60;;;3.53;;
5979;SDS011;3016;50.308;8.258;2023-07-20T05:22:01;20.17;;;4.17;;
5979;SDS011;3016;50.308;8.258;2023-07-20T05:25:02;19.07;;;3.50;;
5979;SDS011;3016;50.308;8.258;2023-07-20T05:28:03;19.10;;;3.50;;
5979;SDS011;3016;50.308;8.258;2023-07-20T05:31:05;19.67;;;3.57;;
5979;SDS011;3016;50.308;8.258;2023-07-20T05:34:06;19.83;;;3.57;;
5979;SDS011;3016;50.308;8.258;2023-07-20T05:37:07;19.07;;;3.90;;
5979;SDS011;3016;50.308;8.258;2023-07-20T05:40:08;20.43;;;3.83;;
5979;SDS011;3016;50.308;8.258;2023-07-20T05:43:11;20.30;;;4.50;;
5979;SDS011;3016;50.308;8.258;2023-07-20T05:46:12;22.20;;;4.20;;
5979;SDS011;3016;50.308;8.258;2023-07-20T05:49:13;20.67;;;3.80;;
5979;SDS011;3016;50.308;8.258;2023-07-20T05:52:14;20.23;;;3.47;;
5979;SDS011;3016;50.308;8.258;2023-07-20T05:55:19;21.33;;;4.13;;
5979;SDS011;3016;50.308;8.258;2023-07-20T05:58:19;22.33;;;4.03;;
5979;SDS011;3016;50.308;8.258;2023-07-20T06:01:20;24.93;;;4.33;;
5979;SDS011;3016;50.308;8.258;2023-07-20T06:04:21;20.07;;;4.37;;
5979;SDS011;3016;50.308;8.258;2023-07-20T06:07:22;21.23;;;4.20;;
5979;SDS011;3016;50.308;8.258;2023-07-20T06:10:22;20.17;;;3.83;;
5979;SDS011;3016;50.308;8.258;2023-07-20T06:13:23;21.37;;;4.03;;
5979;SDS011;3016;50.308;8.258;2023-07-20T06:16:25;19.63;;;3.77;;
5979;SDS011;3016;50.308;8.258;2023-07-20T06:19:25;18.93;;;3.23;;
5979;SDS011;3016;50.308;8.258;2023-07-20T06:22:26;20.37;;;3.93;;
5979;SDS011;3016;50.308;8.258;2023-07-20T06:25:27;18.73;;;2.83;;
5979;SDS011;3016;50.308;8.258;2023-07-20T06:28:27;18.20;;;2.87;;
5979;SDS011;3016;50.308;8.258;2023-07-20T06:31:28;19.77;;;3.47;;
5979;SDS011;3016;50.308;8.258;2023-07-20T06:34:29;19.23;;;3.07;;
5979;SDS011;3016;50.308;8.258;2023-07-20T06:37:29;18.90;;;3.30;;
5979;SDS011;3016;50.308;8.258;2023-07-20T06:40:30;20.03;;;2.93;;
5979;SDS011;3016;50.308;8.258;2023-07-20T06:43:31;19.70;;;3.40;;
5979;SDS011;3016;50.308;8.258;2023-07-20T06:46:32;22.00;;;3.63;;
5979;SDS011;3016;50.308;8.258;2023-07-20T06:49:32;21.37;;;3.73;;
5979;SDS011;3016;50.308;8.258;2023-07-20T06:52:33;19.80;;;3.37;;
5979;SDS011;3016;50.308;8.258;2023-07-20T06:55:34;21.60;;;4.33;;
5979;SDS011;3016;50.308;8.258;2023-07-20T06:58:35;21.17;;;4.03;;
5979;SDS011;3016;50.308;8.258;2023-07-20T07:01:36;20.80;;;4.40;;
5979;SDS011;3016;50.308;8.258;2023-07-20T07:04:36;21.10;;;3.50;;
5979;SDS011;3016;50.308;8.258;2023-07-20T07:07:37;18.87;;;3.40;;
5979;SDS011;3016;50.308;8.258;2023-07-20T07:10:38;20.37;;;4.23;;
5979;SDS011;3016;50.308;8.258;2023-07-20T07:13:38;19.93;;;3.33;;
5979;SDS011;3016;50.308;8.258;2023-07-20T07:16:39;18.63;;;3.00;;
5979;SDS011;3016;50.308;8.258;2023-07-20T07:19:40;19.67;;;3.40;;
5979;SDS011;3016;50.308;8.258;2023-07-20T07:22:41;19.37;;;3.13;;
5979;SDS011;3016;50.308;8.258;2023-07-20T07:25:45;20.10;;;4.03;;
5979;SDS011;3016;50.308;8.258;2023-07-20T07:28:46;25.70;;;4.53;;
5979;SDS011;3016;50.308;8.258;2023-07-20T07:31:47;20.57;;;4.53;;
5979;SDS011;3016;50.308;8.258;2023-07-20T07:34:48;21.87;;;3.50;;
5979;SDS011;3016;50.308;8.258;2023-07-20T07:37:49;30.80;;;4.43;;
5979;SDS011;3016;50.308;8.258;2023-07-20T07:40:49;22.43;;;5.17;;
5979;SDS011;3016;50.308;8.258;2023-07-20T07:43:50;21.20;;;3.83;;
5979;SDS011;3016;50.308;8.258;2023-07-20T07:46:51;21.30;;;3.97;;
5979;SDS011;3016;50.308;8.258;2023-07-20T07:49:52;22.13;;;4.80;;
5979;SDS011;3016;50.308;8.258;2023-07-20T07:52:52;22.10;;;4.97;;
5979;SDS011;3016;50.308;8.258;2023-07-20T07:55:53;21.23;;;4.20;;
5979;SDS011;3016;50.308;8.258;2023-07-20T07:58:53;23.10;;;4.47;;
5979;SDS011;3016;50.308;8.258;2023-07-20T08:01:54;20.27;;;3.97;;
5979;SDS011;3016;50.308;8.258;2023-07-20T08:04:55;20.07;;;4.00;;
5979;SDS011;3016;50.308;8.258;2023-07-20T08:07:56;21.07;;;4.37;;
5979;SDS011;3016;50.308;8.258;2023-07-20T08:10:56;22.63;;;5.00;;
5979;SDS011;3016;50.308;8.258;2023-07-20T08:13:58;20.33;;;4.10;;
5979;SDS011;3016;50.308;8.258;2023-07-20T08:17:00;20.30;;;4.07;;
5979;SDS011;3016;50.308;8.258;2023-07-20T08:20:01;20.47;;;4.23;;
5979;SDS011;3016;50.308;8.258;2023-07-20T08:23:02;25.33;;;5.30;;
5979;SDS011;3016;50.308;8.258;2023-07-20T08:26:03;22.67;;;4.30;;
5979;SDS011;3016;50.308;8.258;2023-07-20T08:29:04;22.17;;;4.10;;
5979;SDS011;3016;50.308;8.258;2023-07-20T08:32:05;20.73;;;4.70;;
5979;SDS011;3016;50.308;8.258;2023-07-20T08:35:06;20.30;;;4.17;;
5979;SDS011;3016;50.308;8.258;2023-07-20T08:38:07;21.00;;;4.37;;
5979;SDS011;3016;50.308;8.258;2023-07-20T08:41:08;20.77;;;3.87;;
5979;SDS011;3016;50.308;8.258;2023-07-20T08:44:10;20.10;;;4.70;;
5979;SDS011;3016;50.308;8.258;2023-07-20T08:47:11;25.43;;;5.13;;
5979;SDS011;3016;50.308;8.258;2023-07-20T08:50:13;22.73;;;5.67;;
5979;SDS011;3016;50.308;8.258;2023-07-20T08:53:16;26.93;;;5.00;;
5979;SDS011;3016;50.308;8.258;2023-07-20T08:56:17;23.80;;;4.90;;
5979;SDS011;3016;50.308;8.258;2023-07-20T08:59:18;23.17;;;4.90;;
5979;SDS011;3016;50.308;8.258;2023-07-20T09:02:21;26.93;;;5.53;;
5979;SDS011;3016;50.308;8.258;2023-07-20T09:05:26;20.70;;;4.40;;
5979;SDS011;3016;50.308;8.258;2023-07-20T09:08:27;20.20;;;4.03;;
5979;SDS011;3016;50.308;8.258;2023-07-20T09:11:28;23.53;;;5.17;;
5979;SDS011;3016;50.308;8.258;2023-07-20T09:14:28;24.17;;;4.53;;
5979;SDS011;3016;50.308;8.258;2023-07-20T09:17:31;19.80;;;3.93;;
5979;SDS011;3016;50.308;8.258;2023-07-20T09:20:32;21.73;;;4.07;;
5979;SDS011;3016;50.308;8.258;2023-07-20T09:23:35;20.93;;;3.80;;
5979;SDS011;3016;50.308;8.258;2023-07-20T09:26:43;24.00;;;4.17;;
5979;SDS011;3016;50.308;8.258;2023-07-20T09:29:49;19.13;;;3.77;;
5979;SDS011;3016;50.308;8.258;2023-07-20T09:32:51;20.13;;;2.97;;
5979;SDS011;3016;50.308;8.258;2023-07-20T09:35:51;19.20;;;3.00;;
5979;SDS011;3016;50.308;8.258;2023-07-20T09:38:52;19.30;;;3.17;;
5979;SDS011;3016;50.308;8.258;2023-07-20T09:41:53;22.27;;;3.80;;
5979;SDS011;3016;50.308;8.258;2023-07-20T09:44:54;19.53;;;3.00;;
5979;SDS011;3016;50.308;8.258;2023-07-20T09:48:06;21.97;;;3.60;;
5979;SDS011;3016;50.308;8.258;2023-07-20T09:51:07;19.23;;;2.83;;
5979;SDS011;3016;50.308;8.258;2023-07-20T09:54:08;21.00;;;2.40;;
5979;SDS011;3016;50.308;8.258;2023-07-20T09:57:11;18.30;;;2.60;;
5979;SDS011;3016;50.308;8.258;2023-07-20T10:00:14;20.13;;;2.70;;
5979;SDS011;3016;50.308;8.258;2023-07-20T10:03:18;20.00;;;2.90;;
5979;SDS011;3016;50.308;8.258;2023-07-20T10:06:23;18.00;;;3.00;;
5979;SDS011;3016;50.308;8.258;2023-07-20T10:09:24;20.87;;;2.83;;
5979;SDS011;3016;50.308;8.258;2023-07-20T10:12:26;17.67;;;1.97;;
5979;SDS011;3016;50.308;8.258;2023-07-20T10:15:30;17.93;;;2.00;;
5979;SDS011;3016;50.308;8.258;2023-07-20T10:19:03;18.10;;;2.30;;
5979;SDS011;3016;50.308;8.258;2023-07-20T10:22:12;18.20;;;2.20;;
5979;SDS011;3016;50.308;8.258;2023-07-20T10:25:17;21.00;;;1.97;;
5979;SDS011;3016;50.308;8.258;2023-07-20T10:28:20;18.20;;;2.20;;
5979;SDS011;3016;50.308;8.258;2023-07-20T10:31:23;17.80;;;2.03;;
5979;SDS011;3016;50.308;8.258;2023-07-20T10:34:24;17.87;;;1.80;;
5979;SDS011;3016;50.308;8.258;2023-07-20T10:40:55;18.20;;;1.77;;
5979;SDS011;3016;50.308;8.258;2023-07-20T10:44:03;17.90;;;2.30;;
5979;SDS011;3016;50.308;8.258;2023-07-20T10:47:10;17.40;;;1.67;;
5979;SDS011;3016;50.308;8.258;2023-07-20T10:50:12;17.40;;;1.73;;
5979;SDS011;3016;50.308;8.258;2023-07-20T10:53:17;18.83;;;1.97;;
5979;SDS011;3016;50.308;8.258;2023-07-20T10:56:22;18.10;;;1.90;;
5979;SDS011;3016;50.308;8.258;2023-07-20T11:02:24;18.20;;;1.80;;
5979;SDS011;3016;50.308;8.258;2023-07-20T11:08:42;18.70;;;1.60;;
5979;SDS011;3016;50.308;8.258;2023-07-20T11:11:44;18.50;;;1.53;;
5979;SDS011;3016;50.308;8.258;2023-07-20T11:14:54;18.77;;;1.70;;
5979;SDS011;3016;50.308;8.258;2023-07-20T11:18:10;19.60;;;2.53;;
5979;SDS011;3016;50.308;8.258;2023-07-20T11:21:14;17.07;;;1.60;;
5979;SDS011;3016;50.308;8.258;2023-07-20T11:24:15;16.97;;;1.57;;
5979;SDS011;3016;50.308;8.258;2023-07-20T11:27:16;20.03;;;1.87;;
5979;SDS011;3016;50.308;8.258;2023-07-20T11:30:22;17.13;;;1.80;;
5979;SDS011;3016;50.308;8.258;2023-07-20T11:33:23;19.30;;;2.10;;
5979;SDS011;3016;50.308;8.258;2023-07-20T11:36:23;18.83;;;2.07;;
5979;SDS011;3016;50.308;8.258;2023-07-20T11:39:24;18.37;;;1.97;;
5979;SDS011;3016;50.308;8.258;2023-07-20T11:42:25;16.77;;;1.50;;
5979;SDS011;3016;50.308;8.258;2023-07-20T11:45:26;17.50;;;1.60;;
5979;SDS011;3016;50.308;8.258;2023-07-20T11:48:27;18.30;;;2.20;;
5979;SDS011;3016;50.308;8.258;2023-07-20T11:51:28;18.90;;;1.73;;
5979;SDS011;3016;50.308;8.258;2023-07-20T11:54:32;17.07;;;1.30;;
5979;SDS011;3016;50.308;8.258;2023-07-20T11:57:37;18.47;;;1.70;;
5979;SDS011;3016;50.308;8.258;2023-07-20T12:00:39;18.70;;;1.90;;
5979;SDS011;3016;50.308;8.258;2023-07-20T12:03:41;17.40;;;1.70;;
5979;SDS011;3016;50.308;8.258;2023-07-20T12:06:44;18.63;;;2.10;;
5979;SDS011;3016;50.308;8.258;2023-07-20T12:13:07;16.97;;;1.27;;
5979;SDS011;3016;50.308;8.258;2023-07-20T12:16:15;17.87;;;2.07;;
5979;SDS011;3016;50.308;8.258;2023-07-20T12:19:16;18.00;;;1.83;;
5979;SDS011;3016;50.308;8.258;2023-07-20T12:22:17;17.90;;;1.67;;
5979;SDS011;3016;50.308;8.258;2023-07-20T12:25:18;17.60;;;1.60;;
5979;SDS011;3016;50.308;8.258;2023-07-20T12:28:20;19.17;;;2.00;;
5979;SDS011;3016;50.308;8.258;2023-07-20T12:31:20;18.20;;;2.20;;
5979;SDS011;3016;50.308;8.258;2023-07-20T12:34:23;17.60;;;1.93;;
5979;SDS011;3016;50.308;8.258;2023-07-20T12:37:23;17.23;;;1.87;;
5979;SDS011;3016;50.308;8.258;2023-07-20T12:40:25;17.77;;;1.70;;
5979;SDS011;3016;50.308;8.258;2023-07-20T12:43:26;17.60;;;1.83;;
5979;SDS011;3016;50.308;8.258;2023-07-20T12:46:27;18.30;;;1.83;;
5979;SDS011;3016;50.308;8.258;2023-07-20T12:49:29;17.37;;;1.60;;
5979;SDS011;3016;50.308;8.258;2023-07-20T12:52:29;17.80;;;1.57;;
5979;SDS011;3016;50.308;8.258;2023-07-20T12:55:30;17.40;;;1.50;;
5979;SDS011;3016;50.308;8.258;2023-07-20T12:58:32;19.17;;;1.83;;
5979;SDS011;3016;50.308;8.258;2023-07-20T13:01:32;17.80;;;2.00;;
5979;SDS011;3016;50.308;8.258;2023-07-20T13:04:33;18.23;;;2.03;;
5979;SDS011;3016;50.308;8.258;2023-07-20T13:07:34;18.53;;;1.80;;
5979;SDS011;3016;50.308;8.258;2023-07-20T13:10:38;17.90;;;1.70;;
5979;SDS011;3016;50.308;8.258;2023-07-20T13:13:38;17.53;;;1.80;;
5979;SDS011;3016;50.308;8.258;2023-07-20T13:16:39;17.40;;;1.87;;
5979;SDS011;3016;50.308;8.258;2023-07-20T13:19:40;17.07;;;1.60;;
5979;SDS011;3016;50.308;8.258;2023-07-20T13:22:40;17.43;;;1.73;;
5979;SDS011;3016;50.308;8.258;2023-07-20T13:25:41;17.53;;;2.10;;
5979;SDS011;3016;50.308;8.258;2023-07-20T13:28:42;17.70;;;1.80;;
5979;SDS011;3016;50.308;8.258;2023-07-20T13:31:43;17.80;;;1.67;;
5979;SDS011;3016;50.308;8.258;2023-07-20T13:34:44;17.60;;;1.90;;
5979;SDS011;3016;50.308;8.258;2023-07-20T13:37:45;17.70;;;1.80;;
5979;SDS011;3016;50.308;8.258;2023-07-20T13:40:46;17.77;;;1.97;;
5979;SDS011;3016;50.308;8.258;2023-07-20T13:43:46;18.17;;;2.33;;
5979;SDS011;3016;50.308;8.258;2023-07-20T13:46:47;18.97;;;1.80;;
5979;SDS011;3016;50.308;8.258;2023-07-20T13:49:48;17.73;;;1.57;;
5979;SDS011;3016;50.308;8.258;2023-07-20T13:52:49;18.33;;;2.20;;
5979;SDS011;3016;50.308;8.258;2023-07-20T13:55:50;18.33;;;2.40;;
5979;SDS011;3016;50.308;8.258;2023-07-20T13:58:52;17.80;;;1.90;;
5979;SDS011;3016;50.308;8.258;2023-07-20T14:01:53;19.30;;;1.90;;
5979;SDS011;3016;50.308;8.258;2023-07-20T14:04:53;17.93;;;1.67;;
5979;SDS011;3016;50.308;8.258;2023-07-20T14:07:55;23.10;;;2.27;;
5979;SDS011;3016;50.308;8.258;2023-07-20T14:10:56;18.27;;;1.90;;
5979;SDS011;3016;50.308;8.258;2023-07-20T14:13:57;19.00;;;2.00;;
5979;SDS011;3016;50.308;8.258;2023-07-20T14:17:00;18.33;;;2.13;;
5979;SDS011;3016;50.308;8.258;2023-07-20T14:20:01;18.00;;;2.13;;
5979;SDS011;3016;50.308;8.258;2023-07-20T14:23:05;17.83;;;1.90;;
5979;SDS011;3016;50.308;8.258;2023-07-20T14:26:06;18.17;;;1.77;;
5979;SDS011;3016;50.308;8.258;2023-07-20T14:29:08;18.80;;;1.80;;
5979;SDS011;3016;50.308;8.258;2023-07-20T14:32:09;19.00;;;2.10;;
5979;SDS011;3016;50.308;8.258;2023-07-20T14:35:10;17.30;;;1.50;;
5979;SDS011;3016;50.308;8.258;2023-07-20T14:38:12;17.60;;;1.80;;
5979;SDS011;3016;50.308;8.258;2023-07-20T14:41:12;19.90;;;2.07;;
5979;SDS011;3016;50.308;8.258;2023-07-20T14:44:13;19.03;;;2.00;;
5979;SDS011;3016;50.308;8.258;2023-07-20T14:47:14;17.90;;;1.83;;
5979;SDS011;3016;50.308;8.258;2023-07-20T14:50:14;17.67;;;1.80;;
5979;SDS011;3016;50.308;8.258;2023-07-20T14:53:15;18.07;;;2.00;;
5979;SDS011;3016;50.308;8.258;2023-07-20T14:56:16;18.40;;;2.03;;
5979;SDS011;3016;50.308;8.258;2023-07-20T14:59:17;19.33;;;3.00;;
5979;SDS011;3016;50.308;8.258;2023-07-20T15:02:18;19.63;;;2.20;;
5979;SDS011;3016;50.308;8.258;2023-07-20T15:05:22;17.80;;;1.83;;
5979;SDS011;3016;50.308;8.258;2023-07-20T15:08:24;17.77;;;1.97;;
5979;SDS011;3016;50.308;8.258;2023-07-20T15:11:25;18.10;;;1.93;;
5979;SDS011;3016;50.308;8.258;2023-07-20T15:14:26;17.60;;;1.77;;
5979;SDS011;3016;50.308;8.258;2023-07-20T15:17:26;18.00;;;2.00;;
5979;SDS011;3016;50.308;8.258;2023-07-20T15:20:27;18.00;;;1.60;;
5979;SDS011;3016;50.308;8.258;2023-07-20T15:23:28;17.63;;;2.00;;
5979;SDS011;3016;50.308;8.258;2023-07-20T15:26:28;17.60;;;1.90;;
5979;SDS011;3016;50.308;8.258;2023-07-20T15:29:31;18.67;;;1.90;;
5979;SDS011;3016;50.308;8.258;2023-07-20T15:32:31;17.73;;;2.00;;
5979;SDS011;3016;50.308;8.258;2023-07-20T15:35:32;22.63;;;2.10;;
5979;SDS011;3016;50.308;8.258;2023-07-20T15:38:33;17.17;;;1.80;;
5979;SDS011;3016;50.308;8.258;2023-07-20T15:41:33;17.60;;;2.00;;
5979;SDS011;3016;50.308;8.258;2023-07-20T15:44:35;17.63;;;2.07;;
5979;SDS011;3016;50.308;8.258;2023-07-20T15:47:35;17.80;;;1.80;;
5979;SDS011;3016;50.308;8.258;2023-07-20T15:50:36;18.60;;;2.33;;
5979;SDS011;3016;50.308;8.258;2023-07-20T15:53:37;22.80;;;2.00;;
5979;SDS011;3016;50.308;8.258;2023-07-20T15:56:38;19.40;;;2.10;;
5979;SDS011;3016;50.308;8.258;2023-07-20T15:59:40;17.63;;;2.00;;
5979;SDS011;3016;50.308;8.258;2023-07-20T16:02:41;17.30;;;1.83;;
5979;SDS011;3016;50.308;8.258;2023-07-20T16:05:41;17.63;;;1.90;;
5979;SDS011;3016;50.308;8.258;2023-07-20T16:08:43;18.53;;;2.03;;
5979;SDS011;3016;50.308;8.258;2023-07-20T16:11:44;18.20;;;1.90;;
5979;SDS011;3016;50.308;8.258;2023-07-20T16:14:45;17.47;;;1.90;;
5979;SDS011;3016;50.308;8.258;2023-07-20T16:17:46;18.00;;;2.10;;
5979;SDS011;3016;50.308;8.258;2023-07-20T16:20:46;18.50;;;1.83;;
5979;SDS011;3016;50.308;8.258;2023-07-20T16:23:47;18.73;;;1.97;;
5979;SDS011;3016;50.308;8.258;2023-07-20T16:26:48;18.73;;;2.40;;
5979;SDS011;3016;50.308;8.258;2023-07-20T16:29:49;18.60;;;2.40;;
5979;SDS011;3016;50.308;8.258;2023-07-20T16:32:49;17.77;;;2.00;;
5979;SDS011;3016;50.308;8.258;2023-07-20T16:35:50;17.80;;;1.90;;
5979;SDS011;3016;50.308;8.258;2023-07-20T16:38:51;17.87;;;2.27;;
5979;SDS011;3016;50.308;8.258;2023-07-20T16:41:52;17.37;;;2.00;;
5979;SDS011;3016;50.308;8.258;2023-07-20T16:44:52;17.83;;;2.30;;
5979;SDS011;3016;50.308;8.258;2023-07-20T16:47:53;17.20;;;2.00;;
5979;SDS011;3016;50.308;8.258;2023-07-20T16:50:54;17.60;;;1.87;;
5979;SDS011;3016;50.308;8.258;2023-07-20T16:53:58;17.77;;;2.10;;
5979;SDS011;3016;50.308;8.258;2023-07-20T16:56:59;18.13;;;2.10;;
5979;SDS011;3016;50.308;8.258;2023-07-20T16:59:59;17.77;;;2.20;;
5979;SDS011;3016;50.308;8.258;2023-07-20T17:03:00;18.40;;;2.30;;
5979;SDS011;3016;50.308;8.258;2023-07-20T17:06:03;18.33;;;2.03;;
5979;SDS011;3016;50.308;8.258;2023-07-20T17:09:05;18.43;;;2.00;;
5979;SDS011;3016;50.308;8.258;2023-07-20T17:12:06;17.77;;;2.20;;
5979;SDS011;3016;50.308;8.258;2023-07-20T17:15:08;17.40;;;1.93;;
5979;SDS011;3016;50.308;8.258;2023-07-20T17:18:09;17.60;;;2.17;;
5979;SDS011;3016;50.308;8.258;2023-07-20T17:21:10;19.60;;;2.40;;
5979;SDS011;3016;50.308;8.258;2023-07-20T17:24:11;19.17;;;2.77;;
5979;SDS011;3016;50.308;8.258;2023-07-20T17:27:12;19.07;;;2.43;;
5979;SDS011;3016;50.308;8.258;2023-07-20T17:30:13;17.83;;;2.10;;
5979;SDS011;3016;50.308;8.258;2023-07-20T17:33:13;18.23;;;2.47;;
5979;SDS011;3016;50.308;8.258;2023-07-20T17:36:15;18.00;;;1.87;;
5979;SDS011;3016;50.308;8.258;2023-07-20T17:39:17;17.47;;;1.90;;
5979;SDS011;3016;50.308;8.258;2023-07-20T17:42:17;17.53;;;2.03;;
5979;SDS011;3016;50.308;8.258;2023-07-20T17:45:19;18.63;;;2.33;;
5979;SDS011;3016;50.308;8.258;2023-07-20T17:48:21;20.00;;;2.50;;
5979;SDS011;3016;50.308;8.258;2023-07-20T17:51:21;18.43;;;2.50;;
5979;SDS011;3016;50.308;8.258;2023-07-20T17:54:22;20.17;;;2.60;;
5979;SDS011;3016;50.308;8.258;2023-07-20T17:57:23;17.70;;;1.90;;
5979;SDS011;3016;50.308;8.258;2023-07-20T18:00:23;17.40;;;2.13;;
5979;SDS011;3016;50.308;8.258;2023-07-20T18:03:24;18.83;;;2.53;;
5979;SDS011;3016;50.308;8.258;2023-07-20T18:06:25;18.60;;;2.70;;
5979;SDS011;3016;50.308;8.258;2023-07-20T18:09:29;20.90;;;2.60;;
5979;SDS011;3016;50.308;8.258;2023-07-20T18:12:30;18.00;;;2.37;;
5979;SDS011;3016;50.308;8.258;2023-07-20T18:15:31;21.50;;;2.63;;
5979;SDS011;3016;50.308;8.258;2023-07-20T18:18:32;18.07;;;2.37;;
5979;SDS011;3016;50.308;8.258;2023-07-20T18:21:33;18.53;;;2.47;;
5979;SDS011;3016;50.308;8.258;2023-07-20T18:24:33;18.17;;;2.10;;
5979;SDS011;3016;50.308;8.258;2023-07-20T18:27:34;17.50;;;2.13;;
5979;SDS011;3016;50.308;8.258;2023-07-20T18:30:37;19.00;;;2.80;;
5979;SDS011;3016;50.308;8.258;2023-07-20T18:33:39;18.17;;;2.17;;
5979;SDS011;3016;50.308;8.258;2023-07-20T18:36:41;18.30;;;2.70;;
5979;SDS011;3016;50.308;8.258;2023-07-20T18:39:43;18.43;;;3.17;;
5979;SDS011;3016;50.308;8.258;2023-07-20T18:42:45;18.73;;;2.27;;
5979;SDS011;3016;50.308;8.258;2023-07-20T18:45:47;18.93;;;2.20;;
5979;SDS011;3016;50.308;8.258;2023-07-20T18:48:47;19.03;;;2.60;;
5979;SDS011;3016;50.308;8.258;2023-07-20T18:51:48;18.47;;;2.60;;
5979;SDS011;3016;50.308;8.258;2023-07-20T18:54:49;19.17;;;2.50;;
5979;SDS011;3016;50.308;8.258;2023-07-20T18:57:50;14.57;;;2.50;;